createdAt,value
2016-04-26T00:00:18.232Z,99.99
2016-04-26T00:02:59.114Z,99.99
2016-04-26T00:03:33.445Z,99.99
2016-04-26T00:05:43.096Z,99.99
2016-04-26T00:06:43.020Z,99.99
2016-04-26T00:07:43.085Z,99.99
2016-04-26T00:08:43.040Z,99.99
2016-04-26T00:09:55.793Z,99.99
2016-04-26T00:10:43.062Z,99.99
2016-04-26T00:12:08.751Z,99.99
2016-04-26T00:12:52.629Z,99.99
2016-04-26T00:13:52.711Z,99.99
2016-04-26T00:14:52.667Z,99.99
2016-04-26T00:15:54.091Z,99.99
2016-04-26T00:16:52.703Z,99.99
2016-04-26T00:17:52.706Z,99.99
2016-04-26T00:18:52.725Z,99.99
2016-04-26T00:20:07.914Z,99.99
2016-04-26T00:20:59.011Z,99.99
2016-04-26T00:21:52.747Z,99.99
2016-04-26T00:22:52.875Z,99.99
2016-04-26T00:23:52.800Z,99.99
2016-04-26T00:25:18.475Z,99.99
2016-04-26T00:26:21.586Z,99.99
2016-04-26T00:27:21.558Z,99.99
2016-04-26T00:28:05.436Z,99.99
2016-04-26T00:29:05.469Z,99.99
2016-04-26T00:30:05.472Z,99.99
2016-04-26T00:31:05.647Z,99.99
2016-04-26T00:32:06.228Z,99.99
2016-04-26T00:33:05.574Z,99.99
2016-04-26T00:34:05.546Z,99.99
2016-04-26T00:35:18.282Z,99.99
2016-04-26T00:36:05.551Z,99.99
2016-04-26T00:37:05.569Z,99.99
2016-04-26T00:38:05.588Z,99.99
2016-04-26T00:39:05.606Z,99.99
2016-04-26T00:40:05.609Z,99.99
2016-04-26T00:41:05.627Z,99.99
2016-04-26T00:42:05.629Z,99.99
2016-04-26T00:43:05.648Z,99.99
2016-04-26T00:44:05.666Z,99.99
2016-04-26T00:45:18.434Z,99.99
2016-04-26T00:46:05.531Z,99.99
2016-04-26T00:47:18.439Z,99.99
2016-04-26T00:48:05.724Z,99.99
2016-04-26T00:49:05.726Z,99.99
2016-04-26T00:50:05.744Z,99.99
2016-04-26T00:51:05.811Z,99.99
2016-04-26T00:52:05.781Z,99.99
2016-04-26T00:53:05.800Z,99.99
2016-04-26T00:54:05.803Z,99.99
2016-04-26T00:55:05.821Z,99.99
2016-04-26T00:56:05.839Z,99.99
2016-04-26T00:57:18.591Z,99.99
2016-04-26T00:58:05.875Z,99.99
2016-04-26T00:59:18.613Z,99.99
2016-04-26T01:00:05.881Z,99.99
2016-04-26T01:01:06.180Z,99.99
2016-04-26T01:02:05.886Z,99.99
2016-04-26T01:03:05.935Z,99.99
2016-04-26T01:04:05.955Z,99.99
2016-04-26T01:05:05.974Z,99.99
2016-04-26T01:06:05.976Z,99.99
2016-04-26T01:07:05.979Z,99.99
2016-04-26T01:08:05.981Z,99.99
2016-04-26T01:09:06.015Z,99.99
2016-04-26T01:10:25.236Z,99.99
2016-04-26T01:11:09.115Z,99.99
2016-04-26T01:12:34.837Z,99.99
2016-04-26T01:13:18.697Z,99.99
2016-04-26T01:14:18.732Z,99.99
2016-04-26T01:15:18.718Z,99.99
2016-04-26T01:16:19.237Z,99.99
2016-04-26T01:17:25.068Z,99.99
2016-04-26T01:18:20.179Z,99.99
2016-04-26T01:19:31.511Z,99.99
2016-04-26T01:20:18.795Z,99.99
2016-04-26T01:21:18.812Z,99.99
2016-04-26T01:22:18.846Z,99.99
2016-04-26T01:23:18.834Z,99.99
2016-04-26T01:24:18.836Z,99.99
2016-04-26T01:25:31.620Z,99.99
2016-04-26T01:26:38.094Z,99.99
2016-04-26T01:27:18.938Z,99.99
2016-04-26T01:28:44.569Z,99.99
2016-04-26T01:29:18.913Z,99.99
2016-04-26T01:30:18.916Z,99.99
2016-04-26T01:31:18.808Z,99.99
2016-04-26T01:32:18.967Z,99.99
2016-04-26T01:33:18.969Z,99.99
2016-04-26T01:34:31.707Z,99.99
2016-04-26T01:35:19.007Z,99.99
2016-04-26T01:36:19.010Z,99.99
2016-04-26T01:37:19.043Z,99.99
2016-04-26T01:38:19.062Z,99.99
2016-04-26T01:39:19.065Z,99.99
2016-04-26T01:40:19.068Z,99.99
2016-04-26T01:41:19.101Z,99.99
2016-04-26T01:42:19.103Z,99.99
2016-04-26T01:43:19.122Z,99.99
2016-04-26T01:44:19.749Z,99.99
2016-04-26T01:45:19.143Z,99.99
2016-04-26T01:46:19.364Z,99.99
2016-04-26T01:47:19.212Z,99.99
2016-04-26T01:48:19.839Z,99.99
2016-04-26T01:49:19.200Z,99.99
2016-04-26T01:50:19.219Z,99.99
2016-04-26T01:51:19.222Z,99.99
2016-04-26T01:52:19.239Z,99.99
2016-04-26T01:53:19.243Z,99.99
2016-04-26T01:54:19.261Z,99.99
2016-04-26T01:55:32.013Z,99.99
2016-04-26T01:56:19.298Z,99.99
2016-04-26T01:57:19.347Z,99.99
2016-04-26T01:58:32.068Z,99.99
2016-04-26T01:59:19.337Z,99.99
2016-04-26T02:00:45.030Z,99.99
2016-04-26T02:01:19.249Z,99.99
2016-04-26T02:02:19.236Z,99.99
2016-04-26T02:03:19.394Z,99.99
2016-04-26T02:04:19.397Z,99.99
2016-04-26T02:05:20.025Z,99.99
2016-04-26T02:06:20.012Z,99.99
2016-04-26T02:07:19.437Z,99.99
2016-04-26T02:08:32.393Z,99.99
2016-04-26T02:09:19.488Z,99.99
2016-04-26T02:10:19.492Z,99.99
2016-04-26T02:11:32.447Z,99.99
2016-04-26T02:12:19.559Z,99.99
2016-04-26T02:13:19.531Z,99.99
2016-04-26T02:14:19.534Z,99.99
2016-04-26T02:15:19.551Z,99.99
2016-04-26T02:16:19.710Z,99.99
2016-04-26T02:17:19.573Z,99.99
2016-04-26T02:18:19.654Z,99.99
2016-04-26T02:19:19.609Z,99.99
2016-04-26T02:20:19.628Z,99.99
2016-04-26T02:21:38.834Z,99.99
2016-04-26T02:22:19.664Z,99.99
2016-04-26T02:23:19.658Z,99.99
2016-04-26T02:24:19.677Z,99.99
2016-04-26T02:25:19.680Z,99.99
2016-04-26T02:26:19.697Z,99.99
2016-04-26T02:27:19.716Z,99.99
2016-04-26T02:28:19.719Z,99.99
2016-04-26T02:29:19.721Z,99.99
2016-04-26T02:30:19.740Z,99.99
2016-04-26T02:31:19.804Z,99.99
2016-04-26T02:32:19.902Z,99.99
2016-04-26T02:33:26.060Z,99.99
2016-04-26T02:34:19.781Z,99.99
2016-04-26T02:35:39.018Z,99.99
2016-04-26T02:36:19.818Z,99.99
2016-04-26T02:37:19.837Z,99.99
2016-04-26T02:38:26.120Z,99.99
2016-04-26T02:39:19.874Z,99.99
2016-04-26T02:40:19.876Z,99.99
2016-04-26T02:41:19.895Z,99.99
2016-04-26T02:42:45.571Z,99.99
2016-04-26T02:43:19.930Z,99.99
2016-04-26T02:44:19.918Z,99.99
2016-04-26T02:45:32.671Z,99.99
2016-04-26T02:46:21.392Z,99.99
2016-04-26T02:47:20.144Z,99.99
2016-04-26T02:48:32.711Z,99.99
2016-04-26T02:49:32.728Z,99.99
2016-04-26T02:50:19.996Z,99.99
2016-04-26T02:51:20.014Z,99.99
2016-04-26T02:52:20.065Z,99.99
2016-04-26T02:53:26.333Z,99.99
2016-04-26T02:54:20.054Z,99.99
2016-04-26T02:55:20.058Z,99.99
2016-04-26T02:56:26.340Z,99.99
2016-04-26T02:57:20.094Z,99.99
2016-04-26T02:58:20.096Z,99.99
2016-04-26T02:59:20.115Z,99.99
2016-04-26T03:00:20.149Z,99.99
2016-04-26T03:01:20.449Z,99.99
2016-04-26T03:02:20.013Z,99.99
2016-04-26T03:03:20.187Z,99.99
2016-04-26T03:04:20.175Z,99.99
2016-04-26T03:05:20.818Z,99.99
2016-04-26T03:06:20.196Z,99.99
2016-04-26T03:07:20.214Z,99.99
2016-04-26T03:08:32.967Z,99.99
2016-04-26T03:09:20.860Z,99.99
2016-04-26T03:10:20.269Z,99.99
2016-04-26T03:11:20.256Z,99.99
2016-04-26T03:12:20.275Z,99.99
2016-04-26T03:13:20.309Z,99.99
2016-04-26T03:14:20.311Z,99.99
2016-04-26T03:15:20.329Z,99.99
2016-04-26T03:16:20.410Z,99.99
2016-04-26T03:17:33.461Z,99.99
2016-04-26T03:18:27.229Z,99.99
2016-04-26T03:19:20.373Z,99.99
2016-04-26T03:20:21.781Z,99.99
2016-04-26T03:21:20.237Z,99.99
2016-04-26T03:22:51.711Z,99.99
2016-04-26T03:23:21.023Z,99.99
2016-04-26T03:25:35.576Z,99.99
2016-04-26T03:26:35.595Z,99.99
2016-04-26T03:27:41.881Z,99.99
2016-04-26T03:28:35.615Z,99.99
2016-04-26T03:29:35.618Z,99.99
2016-04-26T03:30:35.855Z,99.99
2016-04-26T03:31:37.061Z,99.99
2016-04-26T03:32:49.378Z,99.99
2016-04-26T03:33:35.050Z,99.99
2016-04-26T03:34:35.710Z,99.99
2016-04-26T03:35:42.090Z,99.99
2016-04-26T03:36:54.921Z,99.99
2016-04-26T03:37:38.811Z,99.99
2016-04-26T03:38:58.052Z,99.99
2016-04-26T03:39:38.817Z,99.99
2016-04-26T03:40:38.851Z,99.99
2016-04-26T03:41:38.947Z,99.99
2016-04-26T03:42:38.872Z,99.99
2016-04-26T03:43:38.968Z,99.99
2016-04-26T03:44:45.239Z,99.99
2016-04-26T03:45:38.895Z,99.99
2016-04-26T03:46:38.914Z,99.99
2016-04-26T03:47:51.653Z,99.99
2016-04-26T03:48:39.090Z,99.99
2016-04-26T03:49:39.157Z,99.99
2016-04-26T03:51:10.412Z,99.99
2016-04-26T03:51:54.321Z,99.99
2016-04-26T03:53:13.542Z,99.99
2016-04-26T03:53:54.342Z,99.99
2016-04-26T03:56:31.003Z,99.99
2016-04-26T03:57:05.334Z,99.99
2016-04-26T03:59:05.356Z,99.99
2016-04-26T04:00:05.373Z,99.99
2016-04-26T04:01:18.141Z,99.99
2016-04-26T04:02:05.426Z,99.99
2016-04-26T04:03:24.663Z,99.99
2016-04-26T04:04:05.399Z,99.99
2016-04-26T04:05:36.731Z,99.99
2016-04-26T04:06:46.111Z,99.99
2016-04-26T04:07:46.083Z,99.99
2016-04-26T04:08:46.116Z,99.99
2016-04-26T04:09:47.535Z,99.99
2016-04-26T04:11:05.335Z,99.99
2016-04-26T04:11:46.134Z,99.99
2016-04-26T04:13:17.465Z,99.99
2016-04-26T04:14:01.343Z,99.99
2016-04-26T04:15:01.345Z,99.99
2016-04-26T04:16:13.942Z,99.99
2016-04-26T04:17:01.382Z,99.99
2016-04-26T04:18:01.384Z,99.99
2016-04-26T04:19:01.418Z,99.99
2016-04-26T04:20:14.140Z,99.99
2016-04-26T04:21:01.423Z,99.99
2016-04-26T04:23:10.992Z,99.99
2016-04-26T04:24:10.995Z,99.99
2016-04-26T04:27:17.378Z,99.99
2016-04-26T04:28:17.411Z,99.99
2016-04-26T04:29:17.414Z,99.99
2016-04-26T04:30:29.416Z,99.99
2016-04-26T04:31:30.170Z,99.99
2016-04-26T04:32:17.486Z,99.99
2016-04-26T04:33:17.519Z,99.99
2016-04-26T04:34:30.209Z,99.99
2016-04-26T04:35:30.227Z,99.99
2016-04-26T04:36:17.496Z,99.99
2016-04-26T04:37:36.732Z,99.99
2016-04-26T04:38:48.832Z,99.99
2016-04-26T04:39:32.691Z,99.99
2016-04-26T04:40:32.741Z,99.99
2016-04-26T04:41:45.449Z,99.99
2016-04-26T04:42:33.340Z,99.99
2016-04-26T04:43:58.407Z,99.99
2016-04-26T04:44:45.348Z,99.99
2016-04-26T04:46:08.007Z,99.99
2016-04-26T04:46:58.025Z,99.99
2016-04-26T04:48:11.246Z,99.99
2016-04-26T04:49:17.249Z,99.99
2016-04-26T04:49:59.486Z,99.99
2016-04-26T04:51:23.739Z,99.99
2016-04-26T04:52:10.820Z,99.99
2016-04-26T04:52:58.088Z,99.99
2016-04-26T04:53:58.122Z,99.99
2016-04-26T04:55:10.859Z,99.99
2016-04-26T04:55:58.158Z,99.99
2016-04-26T04:57:17.364Z,99.99
2016-04-26T04:58:00.492Z,99.99
2016-04-26T04:59:10.058Z,99.99
2016-04-26T05:00:10.060Z,99.99
2016-04-26T05:01:10.266Z,99.99
2016-04-26T05:02:09.925Z,99.99
2016-04-26T05:03:19.568Z,99.99
2016-04-26T05:04:19.399Z,99.99
2016-04-26T05:05:19.511Z,99.99
2016-04-26T05:06:34.685Z,99.99
2016-04-26T05:07:34.689Z,99.99
2016-04-26T05:08:34.721Z,99.99
2016-04-26T05:09:35.350Z,99.99
2016-04-26T05:10:47.480Z,99.99
2016-04-26T05:11:34.762Z,99.99
2016-04-26T05:12:34.765Z,99.99
2016-04-26T05:13:34.798Z,99.99
2016-04-26T05:15:00.476Z,99.99
2016-04-26T05:15:47.556Z,99.99
2016-04-26T05:17:06.137Z,99.99
2016-04-26T05:18:00.530Z,99.99
2016-04-26T05:18:34.858Z,99.99
2016-04-26T05:19:34.862Z,99.99
2016-04-26T05:21:34.898Z,99.99
2016-04-26T05:22:34.901Z,99.99
2016-04-26T05:23:35.044Z,99.48
2016-04-26T05:24:34.922Z,98.63
2016-04-26T05:25:41.409Z,97.21
2016-04-26T05:26:34.989Z,95.79
2016-04-26T05:27:47.729Z,94.32
2016-04-26T05:28:34.995Z,92.09
2016-04-26T05:29:54.203Z,90.67
2016-04-26T05:30:34.250Z,89.72
2016-04-26T05:32:00.553Z,89.62
2016-04-26T05:33:11.430Z,90.67
2016-04-26T05:33:45.774Z,91.85
2016-04-26T05:34:46.402Z,91.85
2016-04-26T05:35:45.795Z,92.33
2016-04-26T05:36:45.797Z,93.08
2016-04-26T05:37:45.832Z,93.18
2016-04-26T05:38:58.571Z,93.37
2016-04-26T05:39:46.446Z,92.33
2016-04-26T05:41:11.545Z,91.28
2016-04-26T05:41:55.438Z,91
2016-04-26T05:42:55.457Z,91.14
2016-04-26T05:44:08.226Z,91.09
2016-04-26T05:45:14.806Z,90.95
2016-04-26T05:45:55.496Z,90.57
2016-04-26T05:46:55.436Z,91.33
2016-04-26T05:47:55.564Z,91.14
2016-04-26T05:49:01.926Z,91.99
2016-04-26T05:50:09.007Z,92.42
2016-04-26T05:51:08.901Z,92.61
2016-04-26T05:51:55.575Z,92.42
2016-04-26T05:52:56.218Z,93.08
2016-04-26T05:53:57.034Z,92.71
2016-04-26T05:54:56.442Z,93.56
2016-04-26T05:55:58.664Z,94.51
2016-04-26T05:56:55.655Z,93.84
2016-04-26T05:57:55.691Z,94.98
2016-04-26T05:58:55.524Z,95.12
2016-04-26T05:59:55.715Z,95.65
2016-04-26T06:00:55.576Z,95.22
2016-04-26T06:01:56.511Z,95.98
2016-04-26T06:03:08.482Z,96.45
2016-04-26T06:04:08.485Z,96.83
2016-04-26T06:05:21.551Z,96.17
2016-04-26T06:06:18.319Z,96.36
2016-04-26T06:07:24.759Z,96.36
2016-04-26T06:09:05.608Z,96.26
2016-04-26T06:10:05.610Z,95.93
2016-04-26T06:11:06.254Z,95.17
2016-04-26T06:12:31.319Z,95.36
2016-04-26T06:13:12.556Z,94.89
2016-04-26T06:14:05.699Z,93.94
2016-04-26T06:15:22.343Z,93.56
2016-04-26T06:16:22.315Z,93.94
2016-04-26T06:17:22.896Z,94.32
2016-04-26T06:18:22.351Z,93.65
2016-04-26T06:19:22.448Z,93.37
2016-04-26T06:20:22.371Z,93.84
2016-04-26T06:21:35.156Z,93.37
2016-04-26T06:22:22.412Z,94.13
2016-04-26T06:23:48.102Z,94.7
2016-04-26T06:24:57.701Z,94.7
2016-04-26T06:25:32.029Z,94.42
2016-04-26T06:26:32.048Z,94.13
2016-04-26T06:27:32.050Z,93.84
2016-04-26T06:28:38.349Z,93.37
2016-04-26T06:29:32.087Z,93.37
2016-04-26T06:30:32.105Z,92.28
2016-04-26T06:31:57.798Z,91.05
2016-04-26T06:32:41.532Z,89.86
2016-04-26T06:33:41.488Z,88.72
2016-04-26T06:34:41.537Z,87.77
2016-04-26T06:35:41.525Z,87.2
2016-04-26T06:36:42.965Z,87.11
2016-04-26T06:37:41.561Z,86.91
2016-04-26T06:38:54.285Z,86.82
2016-04-26T06:39:41.582Z,85.97
2016-04-26T06:41:00.791Z,85.49
2016-04-26T06:41:43.041Z,84.55
2016-04-26T06:43:47.922Z,86.07
2016-04-26T06:44:51.849Z,84.4
2016-04-26T06:47:08.307Z,81.68
2016-04-26T06:48:08.153Z,80.83
2016-04-26T06:49:08.327Z,79.12
2016-04-26T06:50:08.346Z,79.22
2016-04-26T06:51:08.380Z,77.26
2016-04-26T06:52:08.507Z,73.02
2016-04-26T06:53:08.401Z,69.67
2016-04-26T06:54:14.701Z,66.31
2016-04-26T06:55:41.172Z,65.16
2016-04-26T06:56:15.909Z,65.42
2016-04-26T06:57:12.896Z,66.46
2016-04-26T06:58:25.648Z,66.94
2016-04-26T06:59:13.526Z,67.13
2016-04-26T07:00:32.154Z,68.46
2016-04-26T07:01:16.031Z,68.33
2016-04-26T07:02:36.956Z,70.81
2016-04-26T07:03:15.912Z,70.87
2016-04-26T07:04:47.384Z,75.3
2016-04-26T07:05:31.356Z,76.21
2016-04-26T07:06:31.374Z,76.84
2016-04-26T07:07:31.392Z,79.41
2016-04-26T07:08:37.692Z,81.36
2016-04-26T07:09:37.710Z,82.03
2016-04-26T07:10:44.259Z,82.31
2016-04-26T07:11:44.200Z,83.54
2016-04-26T07:12:50.689Z,84.11
2016-04-26T07:13:31.517Z,83.54
2016-04-26T07:14:31.567Z,84.36
2016-04-26T07:15:44.273Z,84.01
2016-04-26T07:16:31.572Z,83.36
2016-04-26T07:17:57.141Z,82.88
2016-04-26T07:18:33.016Z,82.16
2016-04-26T07:19:31.612Z,81.21
2016-04-26T07:20:44.364Z,81.02
2016-04-26T07:21:31.649Z,80.16
2016-04-26T07:22:52.284Z,80.93
2016-04-26T07:23:31.690Z,79.97
2016-04-26T07:24:34.723Z,80.45
2016-04-26T07:25:31.710Z,81.4
2016-04-26T07:26:31.729Z,82.64
2016-04-26T07:27:33.154Z,82.69
2016-04-26T07:28:31.751Z,82.31
2016-04-26T07:29:31.800Z,81.65
2016-04-26T07:30:31.818Z,81.65
2016-04-26T07:31:34.898Z,82.12
2016-04-26T07:32:34.933Z,84.26
2016-04-26T07:33:36.139Z,84.92
2016-04-26T07:34:34.938Z,84.92
2016-04-26T07:35:34.973Z,86.07
2016-04-26T07:36:34.974Z,86.07
2016-04-26T07:37:35.617Z,85.21
2016-04-26T07:38:35.621Z,85.97
2016-04-26T07:39:35.030Z,86.44
2016-04-26T07:40:47.783Z,85.78
2016-04-26T07:41:47.800Z,85.11
2016-04-26T07:43:00.759Z,85.87
2016-04-26T07:43:54.308Z,86.16
2016-04-26T07:45:06.421Z,87.3
2016-04-26T07:45:50.233Z,87.2
2016-04-26T07:46:50.235Z,86.54
2016-04-26T07:47:50.145Z,87.01
2016-04-26T07:48:56.572Z,87.2
2016-04-26T07:49:50.307Z,86.35
2016-04-26T07:51:21.624Z,87.49
2016-04-26T07:52:00.080Z,87.39
2016-04-26T07:54:15.304Z,86.72
2016-04-26T07:55:15.338Z,86.91
2016-04-26T07:56:15.372Z,88.43
2016-04-26T07:57:15.360Z,89
2016-04-26T07:58:15.379Z,87.96
2016-04-26T07:59:28.131Z,87.77
2016-04-26T08:00:15.415Z,88.87
2016-04-26T08:01:15.417Z,89.15
2016-04-26T08:02:15.450Z,89.43
2016-04-26T08:03:15.720Z,89.81
2016-04-26T08:04:21.769Z,90.57
2016-04-26T08:05:15.490Z,91.05
2016-04-26T08:06:15.492Z,89.15
2016-04-26T08:07:15.527Z,89.25
2016-04-26T08:08:15.545Z,89.91
2016-04-26T08:09:15.564Z,90.48
2016-04-26T08:10:21.848Z,88.34
2016-04-26T08:11:15.600Z,89.2
2016-04-26T08:12:15.634Z,88.68
2016-04-26T08:13:15.606Z,89.25
2016-04-26T08:14:28.436Z,89.15
2016-04-26T08:15:15.658Z,89.06
2016-04-26T08:16:15.722Z,90.38
2016-04-26T08:17:15.694Z,90
2016-04-26T08:18:15.682Z,89.06
2016-04-26T08:19:28.435Z,89.34
2016-04-26T08:20:15.734Z,89.91
2016-04-26T08:21:15.768Z,90.1
2016-04-26T08:22:18.864Z,89.95
2016-04-26T08:23:18.883Z,88.91
2016-04-26T08:24:18.901Z,88.72
2016-04-26T08:25:44.576Z,87.58
2016-04-26T08:26:20.343Z,87.87
2016-04-26T08:27:18.956Z,88.43
2016-04-26T08:28:18.959Z,87.01
2016-04-26T08:29:20.389Z,87.11
2016-04-26T08:30:18.989Z,87.3
2016-04-26T08:31:38.267Z,87.58
2016-04-26T08:32:19.109Z,86.63
2016-04-26T08:33:21.981Z,86.35
2016-04-26T08:34:25.808Z,86.54
2016-04-26T08:35:25.866Z,87.39
2016-04-26T08:36:25.915Z,88.06
2016-04-26T08:37:25.933Z,88.72
2016-04-26T08:38:38.685Z,88.43
2016-04-26T08:39:26.000Z,87.92
2016-04-26T08:40:45.219Z,88.29
2016-04-26T08:41:26.056Z,88.1
2016-04-26T08:42:25.923Z,88.48
2016-04-26T08:43:26.087Z,89.06
2016-04-26T08:44:26.111Z,89.15
2016-04-26T08:45:32.385Z,89.62
2016-04-26T08:46:26.139Z,89.43
2016-04-26T08:47:26.159Z,88.53
2016-04-26T08:48:32.460Z,88.77
2016-04-26T08:49:26.200Z,89.25
2016-04-26T08:50:38.955Z,89
2016-04-26T08:51:32.489Z,86.72
2016-04-26T08:52:33.289Z,86.72
2016-04-26T08:53:26.277Z,87.39
2016-04-26T08:54:26.281Z,87.58
2016-04-26T08:55:26.300Z,88.34
2016-04-26T08:56:26.319Z,86.16
2016-04-26T08:57:29.759Z,87.01
2016-04-26T08:58:32.591Z,86.2
2016-04-26T08:59:39.110Z,83.07
2016-04-26T09:00:27.034Z,82.97
2016-04-26T09:01:39.209Z,82.69
2016-04-26T09:02:31.320Z,82.16
2016-04-26T09:03:26.418Z,82.35
2016-04-26T09:04:52.138Z,83.11
2016-04-26T09:05:36.031Z,83.39
2016-04-26T09:06:36.019Z,84.06
2016-04-26T09:07:36.271Z,83.2
2016-04-26T09:08:36.056Z,81.4
2016-04-26T09:09:36.073Z,82.69
2016-04-26T09:10:36.092Z,83.64
2016-04-26T09:11:36.111Z,83.49
2016-04-26T09:12:42.410Z,82.35
2016-04-26T09:13:36.162Z,82.16
2016-04-26T09:14:36.150Z,81.12
2016-04-26T09:15:36.167Z,81.78
2016-04-26T09:16:42.467Z,82.64
2016-04-26T09:17:36.205Z,82.07
2016-04-26T09:18:55.567Z,82.16
2016-04-26T09:19:37.725Z,83.54
2016-04-26T09:20:36.275Z,84.01
2016-04-26T09:21:36.294Z,85.25
2016-04-26T09:23:45.877Z,84.87
2016-04-26T09:24:45.941Z,85.53
2016-04-26T09:25:45.899Z,84.63
2016-04-26T09:26:45.947Z,83.49
2016-04-26T09:27:46.154Z,84.16
2016-04-26T09:28:45.953Z,84.91
2016-04-26T09:29:52.252Z,84.16
2016-04-26T09:30:45.990Z,84.68
2016-04-26T09:32:05.213Z,86.49
2016-04-26T09:32:46.713Z,86.96
2016-04-26T09:34:57.329Z,88.1
2016-04-26T09:35:57.362Z,88.06
2016-04-26T09:36:57.460Z,89
2016-04-26T09:37:57.399Z,88.67
2016-04-26T09:39:00.654Z,88.67
2016-04-26T09:39:57.436Z,88.15
2016-04-26T09:40:57.439Z,88.24
2016-04-26T09:41:57.473Z,88.06
2016-04-26T09:42:57.506Z,88.1
2016-04-26T09:43:57.509Z,87.82
2016-04-26T09:44:58.936Z,86.77
2016-04-26T09:45:57.545Z,86.96
2016-04-26T09:47:10.285Z,86.39
2016-04-26T09:48:00.288Z,86.49
2016-04-26T09:49:10.306Z,85.06
2016-04-26T09:49:57.603Z,84.21
2016-04-26T09:51:10.375Z,84.59
2016-04-26T09:51:57.672Z,85.58
2016-04-26T09:52:57.658Z,84.25
2016-04-26T09:53:57.677Z,84.06
2016-04-26T09:55:10.417Z,84.16
2016-04-26T09:55:58.293Z,83.87
2016-04-26T09:56:57.559Z,83.87
2016-04-26T09:57:57.734Z,83.01
2016-04-26T09:58:57.752Z,82.1
2016-04-26T09:59:57.755Z,82.1
2016-04-26T10:00:58.383Z,81.44
2016-04-26T10:02:10.544Z,79.96
2016-04-26T10:02:59.219Z,79.2
2016-04-26T10:04:00.487Z,79.49
2016-04-26T10:04:57.909Z,79.49
2016-04-26T10:06:10.602Z,78.29
2016-04-26T10:06:57.899Z,76.67
2016-04-26T10:07:57.918Z,74.96
2016-04-26T10:09:04.204Z,75.53
2016-04-26T10:09:58.548Z,74.9
2016-04-26T10:10:57.956Z,75.28
2016-04-26T10:11:57.991Z,74.52
2016-04-26T10:12:58.603Z,73.66
2016-04-26T10:14:01.983Z,74.8
2016-04-26T10:15:02.001Z,75.28
2016-04-26T10:16:02.019Z,75.43
2016-04-26T10:17:08.304Z,75.53
2016-04-26T10:18:01.916Z,75.28
2016-04-26T10:19:15.669Z,73.95
2016-04-26T10:20:04.093Z,73.76
2016-04-26T10:21:02.111Z,73.66
2016-04-26T10:22:05.144Z,73.1
2016-04-26T10:23:14.867Z,74.14
2016-04-26T10:24:02.151Z,74.48
2016-04-26T10:25:04.152Z,76.39
2016-04-26T10:26:02.188Z,75.53
2016-04-26T10:27:02.222Z,76.2
2016-04-26T10:28:02.239Z,75.81
2016-04-26T10:29:02.258Z,76.86
2016-04-26T10:30:06.635Z,77.2
2016-04-26T10:31:15.123Z,77.97
2016-04-26T10:32:02.313Z,77.68
2016-04-26T10:33:21.582Z,79.77
2016-04-26T10:34:08.475Z,79.86
2016-04-26T10:35:02.352Z,79.63
2016-04-26T10:36:21.589Z,80.53
2016-04-26T10:37:02.405Z,79.92
2016-04-26T10:38:02.437Z,79.83
2016-04-26T10:39:02.441Z,80.11
2016-04-26T10:40:08.725Z,80.87
2016-04-26T10:41:02.478Z,81.12
2016-04-26T10:42:02.495Z,81.02
2016-04-26T10:43:02.514Z,81.4
2016-04-26T10:44:02.548Z,80.87
2016-04-26T10:45:02.551Z,80.58
2016-04-26T10:46:08.834Z,80.49
2016-04-26T10:47:21.806Z,79.92
2016-04-26T10:48:02.606Z,79.83
2016-04-26T10:49:06.108Z,79.83
2016-04-26T10:50:02.643Z,80.11
2016-04-26T10:51:02.676Z,78.88
2016-04-26T10:52:02.678Z,78.11
2016-04-26T10:53:02.697Z,77.58
2016-04-26T10:54:04.388Z,76.73
2016-04-26T10:55:02.718Z,76.92
2016-04-26T10:56:05.784Z,77.11
2016-04-26T10:57:02.784Z,75.91
2016-04-26T10:58:15.524Z,74.01
2016-04-26T10:59:04.557Z,73
2016-04-26T11:00:02.838Z,72.42
2016-04-26T11:01:22.032Z,71.51
2016-04-26T11:02:03.472Z,70.94
2016-04-26T11:03:28.538Z,70.27
2016-04-26T11:04:05.086Z,70.37
2016-04-26T11:05:34.417Z,70.08
2016-04-26T11:06:02.932Z,70.21
2016-04-26T11:08:18.129Z,69.1
2016-04-26T11:09:18.163Z,67.9
2016-04-26T11:10:24.431Z,65.99
2016-04-26T11:11:30.934Z,65.07
2016-04-26T11:12:30.951Z,64.56
2016-04-26T11:13:37.440Z,63.7
2016-04-26T11:14:18.238Z,63.73
2016-04-26T11:15:18.288Z,64.78
2016-04-26T11:16:18.290Z,63.07
2016-04-26T11:17:18.309Z,63.16
2016-04-26T11:18:18.984Z,64.31
2016-04-26T11:19:18.580Z,64.02
2016-04-26T11:20:37.583Z,64.09
2016-04-26T11:21:26.070Z,64.28
2016-04-26T11:22:18.431Z,65.33
2016-04-26T11:23:44.091Z,65.04
2016-04-26T11:24:22.375Z,63.8
2016-04-26T11:25:48.050Z,63.6
2016-04-26T11:26:48.317Z,62.43
2016-04-26T11:27:32.117Z,64.34
2016-04-26T11:28:32.183Z,65.86
2016-04-26T11:29:32.123Z,67.45
2016-04-26T11:30:32.797Z,68.4
2016-04-26T11:31:32.128Z,68.56
2016-04-26T11:32:32.161Z,69.32
2016-04-26T11:33:39.274Z,69.04
2016-04-26T11:34:32.027Z,69.48
2016-04-26T11:35:33.639Z,71.09
2016-04-26T11:36:51.454Z,70.24
2016-04-26T11:37:32.253Z,70.87
2016-04-26T11:38:57.944Z,71.15
2016-04-26T11:39:42.009Z,72.3
2016-04-26T11:40:41.871Z,73.59
2016-04-26T11:41:41.936Z,73.72
2016-04-26T11:42:48.204Z,73.02
2016-04-26T11:43:41.956Z,73.21
2016-04-26T11:44:41.818Z,75.07
2016-04-26T11:45:41.979Z,74.79
2016-04-26T11:46:42.012Z,74.31
2016-04-26T11:47:55.046Z,74.88
2016-04-26T11:49:08.504Z,75.64
2016-04-26T11:49:42.067Z,75.64
2016-04-26T11:51:42.712Z,77.83
2016-04-26T11:52:42.137Z,77.83
2016-04-26T11:53:55.015Z,78.36
2016-04-26T11:54:42.268Z,78.27
2016-04-26T11:56:08.008Z,78.27
2016-04-26T11:56:48.601Z,78.36
2016-04-26T11:57:42.307Z,78.17
2016-04-26T11:58:57.513Z,76.56
2016-04-26T11:59:57.531Z,77.41
2016-04-26T12:00:57.580Z,77.22
2016-04-26T12:01:57.599Z,77.31
2016-04-26T12:02:57.680Z,77.98
2016-04-26T12:03:58.308Z,77.73
2016-04-26T12:04:57.622Z,76.5
2016-04-26T12:05:57.641Z,75.07
2016-04-26T12:06:57.644Z,73.21
2016-04-26T12:07:57.663Z,73.78
2016-04-26T12:08:57.696Z,72.77
2016-04-26T12:10:03.980Z,71.91
2016-04-26T12:10:57.732Z,70.68
2016-04-26T12:11:57.752Z,69.67
2016-04-26T12:12:57.769Z,68.24
2016-04-26T12:13:57.818Z,67.19
2016-04-26T12:14:57.790Z,66.72
2016-04-26T12:15:59.231Z,66.81
2016-04-26T12:16:57.842Z,66.62
2016-04-26T12:17:57.846Z,68.24
2016-04-26T12:18:57.707Z,68.49
2016-04-26T12:20:04.163Z,68.11
2016-04-26T12:20:57.931Z,68.11
2016-04-26T12:21:57.918Z,69.73
2016-04-26T12:22:57.952Z,70.36
2016-04-26T12:23:57.970Z,69.98
2016-04-26T12:25:10.726Z,70.36
2016-04-26T12:25:58.023Z,70.83
2016-04-26T12:26:58.150Z,70.93
2016-04-26T12:27:58.028Z,70.45
2016-04-26T12:28:58.719Z,70.93
2016-04-26T12:29:58.675Z,69.92
2016-04-26T12:30:58.083Z,69.92
2016-04-26T12:31:58.117Z,67.86
2016-04-26T12:32:58.120Z,67.29
2016-04-26T12:33:58.247Z,67.1
2016-04-26T12:34:58.157Z,67.57
2016-04-26T12:35:58.799Z,66.24
2016-04-26T12:36:58.209Z,67.29
2016-04-26T12:38:10.964Z,66.24
2016-04-26T12:39:17.452Z,67.1
2016-04-26T12:39:58.311Z,67.76
2016-04-26T12:40:58.266Z,68.52
2016-04-26T12:41:58.301Z,67.1
2016-04-26T12:42:58.335Z,67
2016-04-26T12:43:58.338Z,65.58
2016-04-26T12:44:58.371Z,65.1
2016-04-26T12:45:58.982Z,64.9
2016-04-26T12:46:58.377Z,67.19
2016-04-26T12:48:11.130Z,64.18
2016-04-26T12:49:11.163Z,63.57
2016-04-26T12:49:58.431Z,62.34
2016-04-26T12:50:58.466Z,64.56
2016-04-26T12:51:58.484Z,65.13
2016-04-26T12:52:58.549Z,64.08
2016-04-26T12:53:58.504Z,61.83
2016-04-26T12:54:58.539Z,62.78
2016-04-26T12:55:58.745Z,61.73
2016-04-26T12:57:11.309Z,64.31
2016-04-26T12:57:58.578Z,60.81
2016-04-26T12:58:58.612Z,57.67
2016-04-26T12:59:58.646Z,53.95
2016-04-26T13:00:58.648Z,55.28
2016-04-26T13:01:58.667Z,57.28
2016-04-26T13:02:58.670Z,57.19
2016-04-26T13:04:04.969Z,57.19
2016-04-26T13:04:58.738Z,55.47
2016-04-26T13:06:11.491Z,59.35
2016-04-26T13:07:17.964Z,57.45
2016-04-26T13:07:58.886Z,59.54
2016-04-26T13:10:14.611Z,56.4
2016-04-26T13:11:14.629Z,55.73
2016-04-26T13:12:20.899Z,55.92
2016-04-26T13:13:14.665Z,57.16
2016-04-26T13:14:14.669Z,54.21
2016-04-26T13:15:20.954Z,56.49
2016-04-26T13:16:14.720Z,56.49
2016-04-26T13:17:14.728Z,56.49
2016-04-26T13:18:14.762Z,55.83
2016-04-26T13:19:21.065Z,54.04
2016-04-26T13:20:27.535Z,55.44
2016-04-26T13:21:14.817Z,56.85